sensor_id;sensor_type;location;lat;lon;timestamp;P1;durP1;ratioP1;P2;durP2;ratioP2
42450;SDS011;28080;51.138;17.170;2024-02-26T00:05:26;40.50;;;19.80;;
42450;SDS011;28080;51.138;17.170;2024-02-26T00:15:51;41.20;;;21.20;;
42450;SDS011;28080;51.138;17.170;2024-02-26T00:26:16;40.20;;;20.80;;
42450;SDS011;28080;51.138;17.170;2024-02-26T00:36:40;43.50;;;22.90;;
42450;SDS011;28080;51.138;17.170;2024-02-26T00:47:06;44.20;;;22.40;;
42450;SDS011;28080;51.138;17.170;2024-02-26T00:57:31;47.40;;;22.60;;
42450;SDS011;28080;51.138;17.170;2024-02-26T01:07:56;43.60;;;21.80;;
42450;SDS011;28080;51.138;17.170;2024-02-26T01:18:21;39.30;;;20.30;;
42450;SDS011;28080;51.138;17.170;2024-02-26T01:28:47;40.20;;;20.20;;
42450;SDS011;28080;51.138;17.170;2024-02-26T01:39:12;48.90;;;23.80;;
42450;SDS011;28080;51.138;17.170;2024-02-26T01:49:37;35.60;;;20.60;;
42450;SDS011;28080;51.138;17.170;2024-02-26T02:00:04;36.10;;;20.40;;
42450;SDS011;28080;51.138;17.170;2024-02-26T02:10:31;39.60;;;20.70;;
42450;SDS011;28080;51.138;17.170;2024-02-26T02:20:56;36.10;;;19.00;;
42450;SDS011;28080;51.138;17.170;2024-02-26T02:31:23;35.10;;;16.60;;
42450;SDS011;28080;51.138;17.170;2024-02-26T02:41:48;37.00;;;19.00;;
42450;SDS011;28080;51.138;17.170;2024-02-26T02:52:22;34.30;;;17.60;;
42450;SDS011;28080;51.138;17.170;2024-02-26T03:02:47;28.40;;;15.70;;
42450;SDS011;28080;51.138;17.170;2024-02-26T03:13:12;33.60;;;15.10;;
42450;SDS011;28080;51.138;17.170;2024-02-26T03:23:37;31.00;;;16.20;;
42450;SDS011;28080;51.138;17.170;2024-02-26T03:34:05;31.90;;;15.80;;
42450;SDS011;28080;51.138;17.170;2024-02-26T03:44:30;30.90;;;15.10;;
42450;SDS011;28080;51.138;17.170;2024-02-26T03:54:56;32.50;;;15.90;;
42450;SDS011;28080;51.138;17.170;2024-02-26T04:05:21;34.10;;;15.90;;
42450;SDS011;28080;51.138;17.170;2024-02-26T04:15:46;32.20;;;15.90;;
42450;SDS011;28080;51.138;17.170;2024-02-26T04:26:11;35.10;;;16.30;;
42450;SDS011;28080;51.138;17.170;2024-02-26T04:36:36;27.70;;;16.30;;
42450;SDS011;28080;51.138;17.170;2024-02-26T04:47:01;40.00;;;18.60;;
42450;SDS011;28080;51.138;17.170;2024-02-26T04:57:27;38.20;;;16.70;;
42450;SDS011;28080;51.138;17.170;2024-02-26T05:07:52;35.80;;;17.30;;
42450;SDS011;28080;51.138;17.170;2024-02-26T05:18:17;29.20;;;15.20;;
42450;SDS011;28080;51.138;17.170;2024-02-26T05:28:43;38.30;;;17.70;;
42450;SDS011;28080;51.138;17.170;2024-02-26T05:39:08;38.00;;;18.80;;
42450;SDS011;28080;51.138;17.170;2024-02-26T05:49:34;35.10;;;17.20;;
42450;SDS011;28080;51.138;17.170;2024-02-26T05:59:59;35.60;;;18.10;;
42450;SDS011;28080;51.138;17.170;2024-02-26T06:10:26;40.90;;;20.00;;
42450;SDS011;28080;51.138;17.170;2024-02-26T06:20:51;46.50;;;23.40;;
42450;SDS011;28080;51.138;17.170;2024-02-26T06:31:16;49.80;;;23.10;;
42450;SDS011;28080;51.138;17.170;2024-02-26T06:41:42;56.60;;;27.30;;
42450;SDS011;28080;51.138;17.170;2024-02-26T06:52:08;75.00;;;31.70;;
42450;SDS011;28080;51.138;17.170;2024-02-26T07:02:34;71.40;;;33.80;;
42450;SDS011;28080;51.138;17.170;2024-02-26T07:12:59;67.10;;;33.90;;
42450;SDS011;28080;51.138;17.170;2024-02-26T07:23:25;54.00;;;26.70;;
42450;SDS011;28080;51.138;17.170;2024-02-26T07:33:50;47.70;;;24.90;;
42450;SDS011;28080;51.138;17.170;2024-02-26T07:44:15;35.30;;;20.00;;
42450;SDS011;28080;51.138;17.170;2024-02-26T07:54:40;35.10;;;18.10;;
42450;SDS011;28080;51.138;17.170;2024-02-26T08:05:06;33.50;;;18.20;;
42450;SDS011;28080;51.138;17.170;2024-02-26T08:15:31;28.20;;;16.80;;
42450;SDS011;28080;51.138;17.170;2024-02-26T08:25:57;27.20;;;14.90;;
42450;SDS011;28080;51.138;17.170;2024-02-26T08:36:23;19.70;;;11.70;;
42450;SDS011;28080;51.138;17.170;2024-02-26T08:46:48;19.80;;;9.30;;
42450;SDS011;28080;51.138;17.170;2024-02-26T08:57:13;11.80;;;7.00;;
42450;SDS011;28080;51.138;17.170;2024-02-26T09:07:39;15.40;;;6.50;;
42450;SDS011;28080;51.138;17.170;2024-02-26T09:18:04;8.20;;;4.70;;
42450;SDS011;28080;51.138;17.170;2024-02-26T09:39:12;7.00;;;3.90;;
42450;SDS011;28080;51.138;17.170;2024-02-26T09:49:42;4.90;;;3.20;;
42450;SDS011;28080;51.138;17.170;2024-02-26T10:00:10;6.20;;;3.50;;
42450;SDS011;28080;51.138;17.170;2024-02-26T10:10:41;10.40;;;4.30;;
42450;SDS011;28080;51.138;17.170;2024-02-26T10:21:01;5.90;;;3.20;;
42450;SDS011;28080;51.138;17.170;2024-02-26T10:31:26;3.90;;;3.00;;
42450;SDS011;28080;51.138;17.170;2024-02-26T10:41:51;6.30;;;4.00;;
42450;SDS011;28080;51.138;17.170;2024-02-26T10:52:16;6.20;;;3.80;;
42450;SDS011;28080;51.138;17.170;2024-02-26T11:02:44;9.70;;;4.00;;
42450;SDS011;28080;51.138;17.170;2024-02-26T11:13:12;7.00;;;4.00;;
42450;SDS011;28080;51.138;17.170;2024-02-26T11:23:41;10.30;;;4.10;;
42450;SDS011;28080;51.138;17.170;2024-02-26T11:34:07;5.30;;;2.70;;
42450;SDS011;28080;51.138;17.170;2024-02-26T11:44:34;6.70;;;2.50;;
42450;SDS011;28080;51.138;17.170;2024-02-26T11:54:52;3.90;;;2.70;;
42450;SDS011;28080;51.138;17.170;2024-02-26T12:05:20;3.90;;;1.90;;
42450;SDS011;28080;51.138;17.170;2024-02-26T12:15:54;6.20;;;2.30;;
42450;SDS011;28080;51.138;17.170;2024-02-26T12:26:21;3.50;;;2.10;;
42450;SDS011;28080;51.138;17.170;2024-02-26T12:36:47;2.30;;;1.70;;
42450;SDS011;28080;51.138;17.170;2024-02-26T12:47:12;3.10;;;2.60;;
42450;SDS011;28080;51.138;17.170;2024-02-26T12:57:38;4.30;;;2.10;;
42450;SDS011;28080;51.138;17.170;2024-02-26T13:08:06;3.90;;;2.00;;
42450;SDS011;28080;51.138;17.170;2024-02-26T13:18:31;2.80;;;2.20;;
42450;SDS011;28080;51.138;17.170;2024-02-26T13:29:02;3.50;;;2.10;;
42450;SDS011;28080;51.138;17.170;2024-02-26T13:39:27;6.00;;;2.30;;
42450;SDS011;28080;51.138;17.170;2024-02-26T13:49:53;3.50;;;2.00;;
42450;SDS011;28080;51.138;17.170;2024-02-26T14:00:19;4.10;;;2.00;;
42450;SDS011;28080;51.138;17.170;2024-02-26T14:10:44;5.70;;;2.60;;
42450;SDS011;28080;51.138;17.170;2024-02-26T14:21:02;3.20;;;2.10;;
42450;SDS011;28080;51.138;17.170;2024-02-26T14:31:28;4.70;;;1.90;;
42450;SDS011;28080;51.138;17.170;2024-02-26T14:41:53;3.40;;;2.10;;
42450;SDS011;28080;51.138;17.170;2024-02-26T14:52:19;4.70;;;2.70;;
42450;SDS011;28080;51.138;17.170;2024-02-26T15:02:45;3.50;;;2.30;;
42450;SDS011;28080;51.138;17.170;2024-02-26T15:13:09;5.50;;;2.40;;
42450;SDS011;28080;51.138;17.170;2024-02-26T15:23:34;6.20;;;2.60;;
42450;SDS011;28080;51.138;17.170;2024-02-26T15:33:59;4.60;;;2.00;;
42450;SDS011;28080;51.138;17.170;2024-02-26T15:44:23;5.20;;;2.10;;
42450;SDS011;28080;51.138;17.170;2024-02-26T15:54:49;8.00;;;4.90;;
42450;SDS011;28080;51.138;17.170;2024-02-26T16:05:14;8.40;;;3.90;;
42450;SDS011;28080;51.138;17.170;2024-02-26T16:15:42;6.50;;;3.10;;
42450;SDS011;28080;51.138;17.170;2024-02-26T16:26:10;5.60;;;4.40;;
42450;SDS011;28080;51.138;17.170;2024-02-26T16:36:36;5.80;;;3.10;;
42450;SDS011;28080;51.138;17.170;2024-02-26T16:46:54;5.60;;;3.60;;
42450;SDS011;28080;51.138;17.170;2024-02-26T16:57:19;10.50;;;5.80;;
42450;SDS011;28080;51.138;17.170;2024-02-26T17:07:44;15.30;;;8.80;;
42450;SDS011;28080;51.138;17.170;2024-02-26T17:18:21;18.60;;;10.20;;
42450;SDS011;28080;51.138;17.170;2024-02-26T17:28:46;20.60;;;11.30;;
42450;SDS011;28080;51.138;17.170;2024-02-26T17:39:12;23.40;;;12.40;;
42450;SDS011;28080;51.138;17.170;2024-02-26T17:49:39;22.40;;;11.50;;
42450;SDS011;28080;51.138;17.170;2024-02-26T18:00:05;22.00;;;12.60;;
42450;SDS011;28080;51.138;17.170;2024-02-26T18:10:31;24.10;;;13.00;;
42450;SDS011;28080;51.138;17.170;2024-02-26T18:20:56;31.00;;;14.20;;
42450;SDS011;28080;51.138;17.170;2024-02-26T18:31:21;22.90;;;11.20;;
42450;SDS011;28080;51.138;17.170;2024-02-26T18:41:47;24.80;;;13.40;;
42450;SDS011;28080;51.138;17.170;2024-02-26T18:52:13;56.60;;;25.40;;
42450;SDS011;28080;51.138;17.170;2024-02-26T19:02:39;60.60;;;27.60;;
42450;SDS011;28080;51.138;17.170;2024-02-26T19:13:04;52.20;;;25.60;;
42450;SDS011;28080;51.138;17.170;2024-02-26T19:23:30;43.80;;;22.50;;
42450;SDS011;28080;51.138;17.170;2024-02-26T19:33:55;45.10;;;22.30;;
42450;SDS011;28080;51.138;17.170;2024-02-26T19:44:20;63.40;;;31.30;;
42450;SDS011;28080;51.138;17.170;2024-02-26T19:54:46;72.60;;;30.30;;
42450;SDS011;28080;51.138;17.170;2024-02-26T20:05:11;44.90;;;22.90;;
42450;SDS011;28080;51.138;17.170;2024-02-26T20:15:36;46.20;;;23.50;;
42450;SDS011;28080;51.138;17.170;2024-02-26T20:26:02;39.70;;;19.00;;
42450;SDS011;28080;51.138;17.170;2024-02-26T20:36:27;49.60;;;22.10;;
42450;SDS011;28080;51.138;17.170;2024-02-26T20:46:52;55.50;;;25.20;;
42450;SDS011;28080;51.138;17.170;2024-02-26T20:57:20;60.30;;;27.20;;
42450;SDS011;28080;51.138;17.170;2024-02-26T21:07:35;67.00;;;28.60;;
42450;SDS011;28080;51.138;17.170;2024-02-26T21:17:54;60.80;;;29.10;;
42450;SDS011;28080;51.138;17.170;2024-02-26T21:28:19;57.60;;;28.00;;
42450;SDS011;28080;51.138;17.170;2024-02-26T21:38:45;67.10;;;32.40;;
42450;SDS011;28080;51.138;17.170;2024-02-26T21:49:10;81.90;;;41.30;;
42450;SDS011;28080;51.138;17.170;2024-02-26T21:59:35;55.20;;;27.30;;
42450;SDS011;28080;51.138;17.170;2024-02-26T22:10:00;52.10;;;24.40;;
42450;SDS011;28080;51.138;17.170;2024-02-26T22:20:26;58.10;;;28.00;;
42450;SDS011;28080;51.138;17.170;2024-02-26T22:30:50;40.30;;;21.80;;
42450;SDS011;28080;51.138;17.170;2024-02-26T22:41:16;59.40;;;27.60;;
42450;SDS011;28080;51.138;17.170;2024-02-26T22:51:41;46.80;;;24.10;;
42450;SDS011;28080;51.138;17.170;2024-02-26T23:02:06;46.70;;;23.80;;
42450;SDS011;28080;51.138;17.170;2024-02-26T23:12:32;50.60;;;26.30;;
42450;SDS011;28080;51.138;17.170;2024-02-26T23:23:18;45.40;;;23.40;;
42450;SDS011;28080;51.138;17.170;2024-02-26T23:33:43;46.90;;;23.50;;
42450;SDS011;28080;51.138;17.170;2024-02-26T23:44:08;44.50;;;19.70;;
42450;SDS011;28080;51.138;17.170;2024-02-26T23:54:34;43.00;;;19.70;;
